Time;durP1;ratioP1;P1;durP2;ratioP2;P2;SDS_P1;SDS_P2;PMS_P1;PMS_P2;Temp;Humidity;BMP_temperature;BMP_pressure;BME280_temperature;BME280_humidity;BME280_pressure;Samples;Min_cycle;Max_cycle;Signal;HPM_P1;HPM_P2
2022/12/18 00:01:45;;;;;;;21.08;9.68;;;;;;;;;;5022047;28;20034;-81
2022/12/18 00:04:22;;;;;;;16.55;9.45;;;;;;;;;;5017315;28;20061;-81
2022/12/18 00:06:48;;;;;;;20.52;7.78;;;;;;;;;;5016678;28;20187;-80
2022/12/18 00:09:13;;;;;;;17.52;7.05;;;;;;;;;;5006574;28;20487;-81
2022/12/18 00:11:39;;;;;;;15.82;7.50;;;;;;;;;;5014251;28;20034;-81
2022/12/18 00:14:04;;;;;;;17.00;8.07;;;;;;;;;;5007844;28;20966;-81
2022/12/18 00:16:32;;;;;;;17.15;8.80;;;;;;;;;;5009092;28;20037;-81
2022/12/18 00:18:59;;;;;;;15.60;7.55;;;;;;;;;;5005290;28;20021;-81
2022/12/18 00:21:25;;;;;;;20.40;9.65;;;;;;;;;;5006900;28;20021;-81
2022/12/18 00:23:50;;;;;;;21.00;8.30;;;;;;;;;;5036060;28;20527;-81
2022/12/18 00:26:22;;;;;;;13.48;8.77;;;;;;;;;;5005815;28;20121;-81
2022/12/18 00:28:47;;;;;;;12.63;7.32;;;;;;;;;;4984704;28;20034;-81
2022/12/18 00:31:19;;;;;;;23.15;7.90;;;;;;;;;;4988276;28;20296;-81
2022/12/18 00:33:45;;;;;;;17.67;7.90;;;;;;;;;;5033550;28;20087;-81
2022/12/18 00:36:21;;;;;;;15.13;7.20;;;;;;;;;;5022688;28;20477;-81
2022/12/18 00:38:47;;;;;;;13.55;6.68;;;;;;;;;;5025849;28;20101;-81
2022/12/18 00:42:55;;;;;;;18.55;8.15;;;;;;;;;;5024208;28;20033;-81
2022/12/18 00:44:00;;;;;;;13.20;6.82;;;;;;;;;;5015908;28;20633;-81
2022/12/18 00:46:25;;;;;;;11.25;6.18;;;;;;;;;;5006192;28;20026;-81
2022/12/18 00:48:50;;;;;;;16.90;7.35;;;;;;;;;;5015314;28;20024;-81
2022/12/18 00:51:15;;;;;;;12.85;6.63;;;;;;;;;;5021023;28;20553;-81
2022/12/18 00:53:41;;;;;;;15.35;7.72;;;;;;;;;;5004250;28;20034;-81
2022/12/18 00:56:06;;;;;;;12.98;6.43;;;;;;;;;;5020303;28;20053;-81
2022/12/18 00:58:31;;;;;;;13.68;7.47;;;;;;;;;;5006219;28;20041;-81
2022/12/18 01:00:57;;;;;;;19.17;8.07;;;;;;;;;;5005418;28;20026;-81
2022/12/18 01:03:22;;;;;;;16.17;7.10;;;;;;;;;;5032910;28;20022;-81
2022/12/18 01:05:47;;;;;;;16.38;8.93;;;;;;;;;;5018760;28;20030;-81
2022/12/18 01:08:13;;;;;;;20.63;7.97;;;;;;;;;;5005516;28;20061;-81
2022/12/18 01:10:41;;;;;;;18.52;6.88;;;;;;;;;;5004764;28;20038;-81
2022/12/18 01:13:06;;;;;;;15.50;6.35;;;;;;;;;;5010589;28;20369;-81
2022/12/18 01:15:32;;;;;;;13.82;7.45;;;;;;;;;;5017586;28;20195;-81
2022/12/18 01:17:57;;;;;;;18.42;8.57;;;;;;;;;;5003611;28;20041;-82
2022/12/18 01:20:22;;;;;;;9.00;6.15;;;;;;;;;;5003462;28;20049;-81
2022/12/18 01:22:48;;;;;;;11.70;7.10;;;;;;;;;;5010039;28;20060;-80
2022/12/18 01:25:13;;;;;;;18.05;6.68;;;;;;;;;;5009236;28;20037;-80
2022/12/18 01:27:38;;;;;;;13.63;6.22;;;;;;;;;;5014305;28;20071;-81
2022/12/18 01:30:04;;;;;;;16.63;6.07;;;;;;;;;;5015701;28;20048;-82
2022/12/18 01:32:31;;;;;;;11.38;5.28;;;;;;;;;;5010670;28;20053;-81
2022/12/18 01:34:57;;;;;;;9.73;6.05;;;;;;;;;;5001031;28;20120;-81
2022/12/18 01:37:22;;;;;;;9.10;5.45;;;;;;;;;;5008279;28;20030;-81
2022/12/18 01:39:48;;;;;;;9.65;4.57;;;;;;;;;;5012822;28;20398;-81
2022/12/18 01:42:15;;;;;;;8.77;5.60;;;;;;;;;;5017319;28;20034;-81
2022/12/18 01:45:00;;;;;;;9.52;5.60;;;;;;;;;;5009482;28;21375;-81
2022/12/18 01:47:28;;;;;;;11.50;5.95;;;;;;;;;;5017040;28;20037;-81
2022/12/18 01:49:54;;;;;;;11.25;5.22;;;;;;;;;;5018635;28;20072;-81
2022/12/18 01:52:21;;;;;;;9.55;3.97;;;;;;;;;;5042500;28;20089;-80
2022/12/18 01:54:48;;;;;;;14.90;6.53;;;;;;;;;;5025482;28;20029;-80
2022/12/18 01:57:14;;;;;;;6.38;3.97;;;;;;;;;;5029168;28;20025;-82
2022/12/18 01:59:41;;;;;;;9.13;5.30;;;;;;;;;;5024927;28;20051;-81
2022/12/18 02:02:07;;;;;;;7.75;4.80;;;;;;;;;;5007888;28;20081;-81
2022/12/18 02:04:33;;;;;;;6.28;3.40;;;;;;;;;;4992457;28;20045;-81
2022/12/18 02:07:06;;;;;;;9.38;5.97;;;;;;;;;;5004743;28;20032;-82
2022/12/18 02:09:44;;;;;;;14.80;6.57;;;;;;;;;;5004812;28;20491;-81
2022/12/18 02:12:39;;;;;;;8.80;4.40;;;;;;;;;;5016238;28;20042;-80
2022/12/18 02:15:18;;;;;;;15.05;4.28;;;;;;;;;;5018857;28;20041;-81
2022/12/18 02:17:51;;;;;;;6.97;3.75;;;;;;;;;;5010955;28;20109;-82
2022/12/18 02:20:22;;;;;;;5.55;3.92;;;;;;;;;;5020915;28;20052;-81
2022/12/18 02:23:12;;;;;;;5.32;4.10;;;;;;;;;;5020404;28;20068;-81
2022/12/18 02:26:05;;;;;;;13.82;6.13;;;;;;;;;;5028650;28;20034;-81
2022/12/18 02:28:35;;;;;;;11.13;4.68;;;;;;;;;;5005189;28;20038;-81
2022/12/18 02:31:04;;;;;;;13.35;6.07;;;;;;;;;;5005760;28;20018;-81
2022/12/18 02:33:31;;;;;;;9.75;6.13;;;;;;;;;;5010596;28;20108;-81
2022/12/18 02:35:59;;;;;;;20.13;6.97;;;;;;;;;;5020740;28;20036;-81
2022/12/18 02:38:25;;;;;;;5.72;4.18;;;;;;;;;;5022591;28;20117;-81
2022/12/18 02:40:53;;;;;;;10.15;5.68;;;;;;;;;;5025648;28;20120;-81
2022/12/18 02:43:18;;;;;;;9.43;4.65;;;;;;;;;;5019483;28;20454;-81
2022/12/18 02:45:54;;;;;;;10.35;5.28;;;;;;;;;;5006225;28;20755;-81
2022/12/18 02:48:24;;;;;;;8.60;5.15;;;;;;;;;;5020586;28;20387;-81
2022/12/18 02:51:20;;;;;;;6.43;3.70;;;;;;;;;;5025907;28;20033;-80
2022/12/18 02:53:53;;;;;;;13.90;5.80;;;;;;;;;;5001415;28;20551;-80
2022/12/18 02:56:53;;;;;;;12.52;5.07;;;;;;;;;;5017690;28;20141;-81
2022/12/18 02:59:59;;;;;;;14.93;5.28;;;;;;;;;;4977764;28;20030;-81
2022/12/18 03:02:34;;;;;;;10.02;5.70;;;;;;;;;;4993181;28;20045;-81
2022/12/18 03:05:13;;;;;;;7.90;5.03;;;;;;;;;;5015417;28;20076;-78
2022/12/18 03:07:46;;;;;;;5.53;3.78;;;;;;;;;;5009799;28;20537;-81
2022/12/18 03:10:15;;;;;;;10.02;5.03;;;;;;;;;;5040686;28;20091;-81
2022/12/18 03:12:50;;;;;;;6.95;4.00;;;;;;;;;;5017334;28;20030;-81
2022/12/18 03:15:42;;;;;;;7.93;5.57;;;;;;;;;;5031557;28;20071;-81
2022/12/18 03:18:20;;;;;;;5.22;3.92;;;;;;;;;;5001923;28;20041;-81
2022/12/18 03:20:48;;;;;;;10.95;4.93;;;;;;;;;;5015895;28;20026;-81
2022/12/18 03:23:18;;;;;;;6.97;4.10;;;;;;;;;;5019231;28;20049;-81
2022/12/18 03:25:45;;;;;;;7.80;3.85;;;;;;;;;;5022584;28;20033;-81
2022/12/18 03:28:15;;;;;;;5.75;4.07;;;;;;;;;;5020375;28;20189;-81
2022/12/18 03:30:43;;;;;;;5.63;4.63;;;;;;;;;;5007654;28;20018;-81
2022/12/18 03:33:17;;;;;;;9.23;5.63;;;;;;;;;;5023920;28;20187;-81
2022/12/18 03:35:43;;;;;;;13.85;5.82;;;;;;;;;;5019951;28;20400;-81
2022/12/18 03:38:10;;;;;;;16.30;4.75;;;;;;;;;;5012581;28;20034;-81
2022/12/18 03:40:48;;;;;;;9.43;4.85;;;;;;;;;;5009144;28;20069;-81
2022/12/18 03:43:25;;;;;;;8.52;4.38;;;;;;;;;;5011038;28;20025;-81
2022/12/18 03:46:02;;;;;;;10.70;5.45;;;;;;;;;;5014266;28;20037;-81
2022/12/18 03:48:37;;;;;;;6.65;4.30;;;;;;;;;;5016085;28;20013;-81
2022/12/18 03:51:08;;;;;;;6.55;4.88;;;;;;;;;;5014507;28;20037;-81
2022/12/18 03:54:02;;;;;;;9.13;5.07;;;;;;;;;;5013970;28;20077;-81
2022/12/18 03:56:36;;;;;;;13.10;4.57;;;;;;;;;;5028572;28;20120;-81
2022/12/18 03:59:04;;;;;;;11.77;5.28;;;;;;;;;;5031617;28;20112;-81
2022/12/18 04:01:37;;;;;;;18.95;3.95;;;;;;;;;;5014386;28;20034;-81
2022/12/18 04:04:04;;;;;;;7.03;4.85;;;;;;;;;;5009259;28;20108;-81
2022/12/18 04:06:30;;;;;;;7.45;3.47;;;;;;;;;;5012048;28;20018;-81
2022/12/18 04:08:57;;;;;;;6.38;3.83;;;;;;;;;;5008117;28;20601;-81
2022/12/18 04:11:22;;;;;;;11.40;4.53;;;;;;;;;;5010561;28;20391;-81
2022/12/18 04:13:48;;;;;;;8.30;4.45;;;;;;;;;;4998632;28;20050;-81
2022/12/18 04:16:13;;;;;;;6.45;4.38;;;;;;;;;;5008715;28;20518;-81
2022/12/18 04:18:38;;;;;;;6.13;3.67;;;;;;;;;;5027048;28;20461;-81
2022/12/18 04:21:04;;;;;;;5.38;2.97;;;;;;;;;;5026735;28;20044;-81
2022/12/18 04:23:29;;;;;;;7.20;6.20;;;;;;;;;;5036482;28;20030;-81
2022/12/18 04:25:54;;;;;;;4.82;3.72;;;;;;;;;;5038618;28;20079;-81
2022/12/18 04:28:20;;;;;;;10.23;3.95;;;;;;;;;;5018543;28;20618;-81
2022/12/18 04:30:45;;;;;;;6.75;3.45;;;;;;;;;;5016802;28;20017;-81
2022/12/18 04:33:12;;;;;;;12.55;5.30;;;;;;;;;;5033371;28;20048;-81
2022/12/18 04:35:39;;;;;;;15.82;5.40;;;;;;;;;;5010216;28;20041;-82
2022/12/18 04:38:06;;;;;;;8.15;4.55;;;;;;;;;;5009191;28;20109;-81
2022/12/18 04:40:31;;;;;;;7.95;3.33;;;;;;;;;;5003374;28;20042;-81
2022/12/18 04:42:57;;;;;;;7.90;4.45;;;;;;;;;;4996058;28;20177;-77
2022/12/18 04:45:22;;;;;;;5.75;3.08;;;;;;;;;;5027904;28;20056;-80
2022/12/18 04:47:47;;;;;;;7.43;3.78;;;;;;;;;;5043623;28;20576;-81
2022/12/18 04:50:13;;;;;;;10.27;4.85;;;;;;;;;;5019920;28;20048;-81
2022/12/18 04:52:38;;;;;;;6.78;3.10;;;;;;;;;;4993435;28;20042;-81
2022/12/18 04:55:03;;;;;;;2.78;2.10;;;;;;;;;;4991770;28;20026;-81
2022/12/18 04:57:29;;;;;;;8.07;3.45;;;;;;;;;;5008171;28;20029;-81
2022/12/18 04:59:54;;;;;;;5.78;3.33;;;;;;;;;;5007569;28;20388;-81
2022/12/18 05:02:20;;;;;;;11.00;4.10;;;;;;;;;;5007982;28;20033;-81
2022/12/18 05:04:45;;;;;;;7.60;4.15;;;;;;;;;;5012983;28;20503;-81
2022/12/18 05:07:10;;;;;;;14.20;4.53;;;;;;;;;;5002104;28;20042;-81
2022/12/18 05:09:35;;;;;;;4.32;2.50;;;;;;;;;;5007981;28;20028;-81
2022/12/18 05:12:01;;;;;;;11.13;3.80;;;;;;;;;;5001087;28;20056;-81
2022/12/18 05:14:27;;;;;;;2.70;2.50;;;;;;;;;;5013978;28;20133;-81
2022/12/18 05:16:52;;;;;;;4.47;2.92;;;;;;;;;;5025549;28;20112;-81
2022/12/18 05:19:18;;;;;;;6.15;3.60;;;;;;;;;;5026326;28;20129;-81
2022/12/18 05:21:43;;;;;;;6.50;2.83;;;;;;;;;;5024767;28;20024;-80
2022/12/18 05:24:08;;;;;;;6.15;3.53;;;;;;;;;;5012436;28;20021;-81
2022/12/18 05:26:33;;;;;;;10.00;4.47;;;;;;;;;;5018243;28;20064;-81
2022/12/18 05:28:59;;;;;;;6.78;3.67;;;;;;;;;;5023581;28;20423;-81
2022/12/18 05:31:24;;;;;;;5.65;4.00;;;;;;;;;;5006999;28;20033;-81
2022/12/18 05:33:49;;;;;;;5.25;3.33;;;;;;;;;;5008417;28;20026;-81
2022/12/18 05:36:15;;;;;;;10.57;4.20;;;;;;;;;;5021607;28;20061;-81
2022/12/18 05:38:40;;;;;;;4.47;3.42;;;;;;;;;;5009290;28;20058;-81
2022/12/18 05:41:07;;;;;;;3.63;2.70;;;;;;;;;;5007333;28;20046;-81
2022/12/18 05:43:35;;;;;;;4.97;3.67;;;;;;;;;;5007842;28;20042;-81
2022/12/18 05:46:05;;;;;;;2.55;2.22;;;;;;;;;;5015676;28;20492;-80
2022/12/18 05:48:30;;;;;;;7.82;2.85;;;;;;;;;;5015078;28;20090;-81
2022/12/18 05:50:56;;;;;;;22.83;4.63;;;;;;;;;;5019550;28;20057;-81
2022/12/18 05:53:21;;;;;;;5.85;3.58;;;;;;;;;;5015630;28;20037;-81
2022/12/18 05:55:47;;;;;;;7.63;4.35;;;;;;;;;;5016720;28;20925;-81
2022/12/18 05:58:14;;;;;;;4.75;3.17;;;;;;;;;;5020645;28;20040;-81
2022/12/18 06:00:44;;;;;;;7.18;3.15;;;;;;;;;;5016797;28;20409;-81
2022/12/18 06:03:11;;;;;;;4.65;3.00;;;;;;;;;;5011250;28;20044;-81
2022/12/18 06:05:39;;;;;;;12.07;4.68;;;;;;;;;;5027615;28;20047;-80
2022/12/18 06:08:05;;;;;;;3.88;2.65;;;;;;;;;;5046348;28;20037;-81
2022/12/18 06:10:30;;;;;;;4.93;3.65;;;;;;;;;;5038498;28;20043;-81
2022/12/18 06:12:56;;;;;;;4.72;2.75;;;;;;;;;;5022630;28;20041;-81
2022/12/18 06:15:21;;;;;;;5.47;3.30;;;;;;;;;;5012875;28;20427;-81
2022/12/18 06:17:46;;;;;;;4.20;2.80;;;;;;;;;;5010849;28;20510;-81
2022/12/18 06:20:12;;;;;;;7.63;4.35;;;;;;;;;;5015157;28;20083;-81
2022/12/18 06:22:37;;;;;;;8.45;2.83;;;;;;;;;;5023239;28;20029;-81
2022/12/18 06:25:03;;;;;;;4.72;2.53;;;;;;;;;;5019590;28;20061;-81
2022/12/18 06:27:28;;;;;;;5.30;2.88;;;;;;;;;;5024163;28;20025;-81
2022/12/18 06:29:54;;;;;;;3.38;2.00;;;;;;;;;;5027383;28;20042;-81
2022/12/18 06:32:19;;;;;;;4.90;2.08;;;;;;;;;;5011785;28;20045;-81
2022/12/18 06:34:44;;;;;;;9.02;3.40;;;;;;;;;;5014562;28;20037;-81
2022/12/18 06:37:10;;;;;;;4.90;3.75;;;;;;;;;;5004556;28;20105;-81
2022/12/18 06:39:35;;;;;;;5.43;2.83;;;;;;;;;;4986873;28;20476;-81
2022/12/18 06:42:00;;;;;;;5.40;3.10;;;;;;;;;;5009988;28;20033;-81
2022/12/18 06:44:26;;;;;;;3.65;1.83;;;;;;;;;;5021447;28;20034;-81
2022/12/18 06:46:51;;;;;;;3.47;2.45;;;;;;;;;;5023243;28;20622;-81
2022/12/18 06:49:16;;;;;;;4.07;2.08;;;;;;;;;;5026514;28;20033;-81
2022/12/18 06:51:42;;;;;;;7.03;2.88;;;;;;;;;;5012219;28;20030;-81
2022/12/18 06:54:08;;;;;;;3.30;1.55;;;;;;;;;;5005607;28;20084;-81
2022/12/18 06:56:33;;;;;;;3.05;2.75;;;;;;;;;;5005554;28;20032;-81
2022/12/18 06:58:58;;;;;;;4.63;2.88;;;;;;;;;;5005189;28;20026;-80
2022/12/18 07:01:24;;;;;;;4.03;2.40;;;;;;;;;;5011518;28;20099;-80
2022/12/18 07:03:54;;;;;;;5.50;2.72;;;;;;;;;;5010784;28;20053;-81
2022/12/18 07:06:22;;;;;;;2.10;1.85;;;;;;;;;;5025226;28;20021;-81
2022/12/18 07:08:48;;;;;;;3.38;2.60;;;;;;;;;;5046054;28;20034;-81
2022/12/18 07:11:14;;;;;;;7.32;3.45;;;;;;;;;;5023736;28;20071;-81
2022/12/18 07:13:39;;;;;;;9.80;3.60;;;;;;;;;;5024391;28;20033;-81
2022/12/18 07:16:10;;;;;;;3.70;1.73;;;;;;;;;;5033825;28;20041;-80
2022/12/18 07:18:36;;;;;;;3.70;2.17;;;;;;;;;;5016996;28;20144;-81
2022/12/18 07:21:08;;;;;;;5.80;2.45;;;;;;;;;;5023724;28;20029;-80
2022/12/18 07:23:34;;;;;;;3.42;2.22;;;;;;;;;;5013181;28;20091;-81
2022/12/18 07:26:08;;;;;;;3.78;2.15;;;;;;;;;;5023508;28;20084;-81
2022/12/18 07:28:34;;;;;;;6.22;2.25;;;;;;;;;;5015807;28;20049;-81
2022/12/18 07:31:08;;;;;;;6.03;2.22;;;;;;;;;;5011133;28;20025;-80
2022/12/18 07:33:34;;;;;;;2.88;1.85;;;;;;;;;;5015381;28;20051;-81
2022/12/18 07:36:01;;;;;;;4.32;2.38;;;;;;;;;;5025775;28;20694;-81
2022/12/18 07:38:26;;;;;;;6.30;3.42;;;;;;;;;;5006007;28;20034;-80
2022/12/18 07:40:52;;;;;;;5.90;2.30;;;;;;;;;;5006407;28;20056;-81
2022/12/18 07:43:17;;;;;;;1.55;1.45;;;;;;;;;;5010330;28;20108;-81
2022/12/18 07:45:43;;;;;;;5.35;2.53;;;;;;;;;;5023467;28;20025;-80
2022/12/18 07:48:08;;;;;;;4.43;1.80;;;;;;;;;;5023041;28;20127;-81
2022/12/18 07:50:34;;;;;;;3.42;2.35;;;;;;;;;;5043113;28;20531;-81
2022/12/18 07:53:03;;;;;;;3.55;2.40;;;;;;;;;;5016951;28;20042;-81
2022/12/18 07:55:29;;;;;;;9.32;3.05;;;;;;;;;;5007798;28;20937;-81
2022/12/18 07:57:54;;;;;;;8.23;2.70;;;;;;;;;;5009337;28;20103;-82
2022/12/18 08:00:20;;;;;;;6.60;3.40;;;;;;;;;;5014829;28;20479;-81
2022/12/18 08:02:46;;;;;;;2.55;2.22;;;;;;;;;;5022521;28;20061;-81
2022/12/18 08:05:11;;;;;;;4.15;3.08;;;;;;;;;;5010660;28;20124;-81
2022/12/18 08:07:37;;;;;;;9.10;3.80;;;;;;;;;;5018810;28;20152;-81
2022/12/18 08:10:03;;;;;;;6.88;3.38;;;;;;;;;;5007086;28;20030;-81
2022/12/18 08:12:28;;;;;;;5.25;2.72;;;;;;;;;;5040918;28;20029;-81
2022/12/18 08:14:54;;;;;;;6.65;3.65;;;;;;;;;;5009684;28;20089;-81
2022/12/18 08:17:20;;;;;;;4.05;3.50;;;;;;;;;;5021583;28;20041;-82
2022/12/18 08:19:45;;;;;;;5.45;2.67;;;;;;;;;;5015076;28;20054;-83
2022/12/18 08:22:10;;;;;;;7.60;3.63;;;;;;;;;;5009374;28;20041;-82
2022/12/18 08:24:35;;;;;;;10.70;4.97;;;;;;;;;;5010197;28;20064;-77
2022/12/18 08:27:01;;;;;;;7.95;4.63;;;;;;;;;;5041248;28;20037;-82
2022/12/18 08:29:26;;;;;;;12.90;6.45;;;;;;;;;;5022098;28;20033;-81
2022/12/18 08:31:51;;;;;;;2.97;2.65;;;;;;;;;;5023914;28;20057;-81
2022/12/18 08:34:17;;;;;;;8.90;4.03;;;;;;;;;;5025683;28;20125;-82
2022/12/18 08:36:42;;;;;;;8.25;4.43;;;;;;;;;;5018301;28;20525;-81
2022/12/18 08:39:07;;;;;;;3.78;2.00;;;;;;;;;;5024833;28;20042;-82
2022/12/18 08:41:33;;;;;;;8.43;3.80;;;;;;;;;;5026821;28;20062;-82
2022/12/18 08:46:43;;;;;;;19.30;7.30;;;;;;;;;;5008635;28;20617;-81
2022/12/18 08:49:10;;;;;;;10.00;4.47;;;;;;;;;;5026218;28;20542;-82
2022/12/18 08:51:36;;;;;;;9.15;4.00;;;;;;;;;;5010446;28;20061;-82
2022/12/18 08:54:02;;;;;;;5.15;2.75;;;;;;;;;;5025580;28;20539;-82
2022/12/18 08:56:27;;;;;;;10.30;5.07;;;;;;;;;;5014544;28;20052;-82
2022/12/18 08:58:54;;;;;;;5.38;3.55;;;;;;;;;;5014636;28;20065;-83
2022/12/18 09:01:19;;;;;;;12.60;5.10;;;;;;;;;;5009712;28;20037;-82
2022/12/18 09:03:45;;;;;;;7.85;3.65;;;;;;;;;;5007785;28;20052;-82
2022/12/18 09:06:14;;;;;;;5.28;3.45;;;;;;;;;;4999903;28;20129;-76
2022/12/18 09:08:39;;;;;;;15.10;6.25;;;;;;;;;;4999334;28;20457;-82
2022/12/18 09:11:21;;;;;;;8.20;3.53;;;;;;;;;;5028613;28;20033;-81
2022/12/18 09:13:47;;;;;;;5.97;3.60;;;;;;;;;;5006845;28;20584;-82
2022/12/18 09:16:12;;;;;;;10.30;4.57;;;;;;;;;;5012247;28;20560;-80
2022/12/18 09:18:38;;;;;;;10.57;4.40;;;;;;;;;;4995741;28;20026;-83
2022/12/18 09:21:14;;;;;;;9.45;4.05;;;;;;;;;;5006044;28;20071;-78
2022/12/18 09:23:41;;;;;;;4.40;2.50;;;;;;;;;;5016731;28;20120;-80
2022/12/18 09:26:07;;;;;;;10.48;4.93;;;;;;;;;;5013649;28;20068;-80
2022/12/18 09:28:32;;;;;;;8.65;3.40;;;;;;;;;;5027305;28;20116;-84
2022/12/18 09:30:58;;;;;;;10.18;4.68;;;;;;;;;;5009971;28;20092;-77
2022/12/18 09:33:23;;;;;;;20.33;5.38;;;;;;;;;;5020107;28;20021;-83
2022/12/18 09:35:49;;;;;;;13.93;5.35;;;;;;;;;;5011173;28;20131;-82
2022/12/18 09:38:17;;;;;;;6.85;2.95;;;;;;;;;;5013159;28;20037;-83
2022/12/18 09:40:47;;;;;;;17.50;6.50;;;;;;;;;;5024797;28;20042;-83
2022/12/18 09:43:19;;;;;;;9.52;3.95;;;;;;;;;;5014202;28;20044;-83
2022/12/18 09:45:49;;;;;;;8.93;3.90;;;;;;;;;;5018857;28;20040;-82
2022/12/18 09:48:35;;;;;;;9.90;4.13;;;;;;;;;;5023893;28;20049;-81
2022/12/18 09:51:14;;;;;;;6.40;3.53;;;;;;;;;;5014940;28;20611;-83
2022/12/18 09:53:44;;;;;;;5.90;2.75;;;;;;;;;;5018195;28;20520;-83
2022/12/18 09:56:15;;;;;;;4.82;2.80;;;;;;;;;;5007103;28;20038;-82
2022/12/18 09:58:47;;;;;;;5.97;3.08;;;;;;;;;;5010549;28;20086;-82
2022/12/18 10:01:23;;;;;;;5.95;2.00;;;;;;;;;;5007109;28;20049;-81
2022/12/18 10:03:48;;;;;;;8.63;4.53;;;;;;;;;;5010249;28;21328;-81
2022/12/18 10:06:23;;;;;;;6.68;3.20;;;;;;;;;;5009944;28;20500;-82
2022/12/18 10:08:51;;;;;;;4.32;2.67;;;;;;;;;;5016880;28;20072;-82
2022/12/18 10:11:47;;;;;;;5.57;2.70;;;;;;;;;;5009800;28;20037;-83
2022/12/18 10:15:01;;;;;;;2.25;1.88;;;;;;;;;;5034895;28;20042;-82
2022/12/18 10:17:53;;;;;;;1.83;1.65;;;;;;;;;;5032271;28;20094;-83
2022/12/18 10:20:40;;;;;;;6.45;3.78;;;;;;;;;;5003353;28;20082;-82
2022/12/18 10:23:40;;;;;;;8.38;3.72;;;;;;;;;;5027509;28;20045;-82
2022/12/18 10:26:08;;;;;;;13.50;5.38;;;;;;;;;;5010735;28;20427;-81
2022/12/18 10:28:37;;;;;;;3.70;2.95;;;;;;;;;;4995348;28;20084;-78
2022/12/18 10:31:05;;;;;;;9.90;3.78;;;;;;;;;;5012271;28;20026;-77
2022/12/18 10:33:32;;;;;;;2.10;1.90;;;;;;;;;;5011032;28;20034;-78
2022/12/18 10:35:58;;;;;;;7.25;4.60;;;;;;;;;;5027202;28;20041;-81
2022/12/18 10:38:25;;;;;;;11.52;3.55;;;;;;;;;;5007312;28;20044;-77
2022/12/18 10:41:11;;;;;;;9.80;3.50;;;;;;;;;;5017906;28;20065;-79
2022/12/18 10:43:38;;;;;;;6.50;3.50;;;;;;;;;;5014284;28;20129;-80
2022/12/18 10:46:09;;;;;;;7.75;3.28;;;;;;;;;;5008055;28;20044;-81
2022/12/18 10:48:46;;;;;;;9.05;4.25;;;;;;;;;;5010096;28;20890;-79
2022/12/18 10:51:20;;;;;;;12.93;4.70;;;;;;;;;;4997600;28;20212;-78
2022/12/18 10:53:53;;;;;;;13.15;4.90;;;;;;;;;;4999206;28;20430;-76
2022/12/18 10:56:19;;;;;;;;;;;;;;;;;;5000149;28;20134;-74
2022/12/18 10:58:56;;;;;;;3.08;2.78;;;;;;;;;;5018155;28;19917;-77
2022/12/18 11:01:21;;;;;;;8.13;4.32;;;;;;;;;;5014662;28;20068;-77
2022/12/18 11:04:00;;;;;;;8.13;3.72;;;;;;;;;;5022332;28;20422;-78
2022/12/18 11:06:26;;;;;;;14.70;4.72;;;;;;;;;;5009530;28;20080;-79
2022/12/18 11:08:59;;;;;;;9.27;4.32;;;;;;;;;;5010418;28;20038;-77
2022/12/18 11:11:25;;;;;;;11.68;5.20;;;;;;;;;;5021958;28;20069;-79
2022/12/18 11:14:17;;;;;;;5.80;4.50;;;;;;;;;;5007247;28;20057;-78
2022/12/18 11:16:46;;;;;;;3.72;2.40;;;;;;;;;;5007504;28;20060;-78
2022/12/18 11:19:35;;;;;;;23.73;7.60;;;;;;;;;;5029992;28;20045;-77
2022/12/18 11:22:27;;;;;;;14.30;7.00;;;;;;;;;;5004860;28;20041;-78
2022/12/18 11:25:01;;;;;;;13.20;5.60;;;;;;;;;;5017327;28;20072;-78
2022/12/18 11:27:28;;;;;;;9.60;3.38;;;;;;;;;;5008059;28;20029;-78
2022/12/18 11:30:09;;;;;;;12.07;5.10;;;;;;;;;;5003940;28;20049;-78
2022/12/18 11:32:38;;;;;;;12.43;5.07;;;;;;;;;;5014912;28;20041;-77
2022/12/18 11:35:36;;;;;;;19.95;7.78;;;;;;;;;;5016920;28;20470;-77
2022/12/18 11:38:10;;;;;;;9.75;4.45;;;;;;;;;;4997282;28;20042;-78
2022/12/18 11:40:37;;;;;;;18.95;7.07;;;;;;;;;;5003678;28;20131;-77
2022/12/18 11:43:13;;;;;;;9.82;5.60;;;;;;;;;;5012875;28;20117;-78
2022/12/18 11:46:07;;;;;;;12.60;5.20;;;;;;;;;;5012696;28;20035;-77
2022/12/18 11:48:57;;;;;;;18.15;7.43;;;;;;;;;;5001656;28;20056;-77
2022/12/18 11:51:34;;;;;;;9.93;4.68;;;;;;;;;;5031000;28;20053;-77
2022/12/18 11:54:01;;;;;;;8.68;5.70;;;;;;;;;;5016812;28;20515;-78
2022/12/18 11:56:36;;;;;;;12.07;5.70;;;;;;;;;;5011862;28;20696;-77
2022/12/18 11:59:04;;;;;;;12.73;5.30;;;;;;;;;;5019270;28;20076;-78
2022/12/18 12:01:46;;;;;;;21.48;8.90;;;;;;;;;;5020327;28;20049;-77
2022/12/18 12:04:19;;;;;;;9.63;4.47;;;;;;;;;;5016092;28;20048;-77
2022/12/18 12:07:17;;;;;;;20.75;7.15;;;;;;;;;;5026168;28;20542;-75
2022/12/18 12:10:00;;;;;;;11.48;4.85;;;;;;;;;;5018400;28;20570;-76
2022/12/18 12:12:45;;;;;;;9.48;4.57;;;;;;;;;;5033493;28;20588;-76
2022/12/18 12:15:22;;;;;;;18.10;8.23;;;;;;;;;;5015403;28;20135;-78
2022/12/18 12:17:51;;;;;;;19.50;7.97;;;;;;;;;;5008230;28;20045;-78
2022/12/18 12:20:31;;;;;;;4.95;3.72;;;;;;;;;;5010475;28;20042;-77
2022/12/18 12:22:59;;;;;;;15.45;6.35;;;;;;;;;;5017258;28;20087;-78
2022/12/18 12:25:51;;;;;;;9.15;5.40;;;;;;;;;;5023238;28;20037;-77
2022/12/18 12:28:59;;;;;;;13.70;5.32;;;;;;;;;;5011048;28;20038;-77
2022/12/18 12:31:39;;;;;;;13.50;5.72;;;;;;;;;;5000388;28;20038;-77
2022/12/18 12:34:19;;;;;;;13.25;5.72;;;;;;;;;;5025383;28;20033;-78
2022/12/18 12:37:06;;;;;;;14.90;7.55;;;;;;;;;;5006598;28;20022;-76
2022/12/18 12:39:37;;;;;;;10.40;5.22;;;;;;;;;;5008989;28;20334;-77
2022/12/18 12:44:55;;;;;;;9.68;5.28;;;;;;;;;;5001098;28;20072;-77
2022/12/18 12:47:35;;;;;;;10.40;5.40;;;;;;;;;;5011379;28;20108;-77
2022/12/18 12:50:04;;;;;;;10.60;4.38;;;;;;;;;;5004514;28;20045;-77
2022/12/18 12:52:35;;;;;;;17.08;7.82;;;;;;;;;;5012811;28;20541;-77
2022/12/18 12:55:04;;;;;;;11.10;5.57;;;;;;;;;;5000859;28;20056;-77
2022/12/18 12:57:43;;;;;;;8.15;4.18;;;;;;;;;;5005906;28;20021;-77
2022/12/18 13:00:13;;;;;;;8.55;5.50;;;;;;;;;;5028385;28;20030;-78
2022/12/18 13:02:54;;;;;;;6.88;3.55;;;;;;;;;;5013241;28;20518;-77
2022/12/18 13:05:40;;;;;;;12.00;3.72;;;;;;;;;;5015872;28;20104;-76
2022/12/18 13:08:08;;;;;;;13.27;5.85;;;;;;;;;;5019879;28;20049;-77
2022/12/18 13:10:36;;;;;;;15.95;5.88;;;;;;;;;;4998205;28;20417;-78
2022/12/18 13:13:06;;;;;;;21.95;8.18;;;;;;;;;;5008795;28;20051;-77
2022/12/18 13:15:41;;;;;;;10.50;6.47;;;;;;;;;;5008873;28;20056;-78
2022/12/18 13:18:09;;;;;;;18.05;7.57;;;;;;;;;;5014988;28;20041;-77
2022/12/18 13:20:43;;;;;;;17.02;8.63;;;;;;;;;;5029601;28;20042;-78
2022/12/18 13:23:24;;;;;;;18.40;7.07;;;;;;;;;;5018744;28;20052;-78
2022/12/18 13:25:59;;;;;;;5.25;3.65;;;;;;;;;;5020896;28;20045;-78
2022/12/18 13:28:47;;;;;;;24.00;10.73;;;;;;;;;;5026193;28;20029;-77
2022/12/18 13:31:40;;;;;;;15.45;6.43;;;;;;;;;;5040810;28;20056;-78
2022/12/18 13:34:26;;;;;;;20.17;8.25;;;;;;;;;;5026197;28;20052;-78
2022/12/18 13:36:53;;;;;;;19.60;7.63;;;;;;;;;;5032988;28;20056;-77
2022/12/18 13:39:18;;;;;;;12.20;5.93;;;;;;;;;;5022493;28;20033;-77
2022/12/18 13:41:49;;;;;;;13.18;5.47;;;;;;;;;;5025303;28;20033;-77
2022/12/18 13:44:32;;;;;;;22.83;8.10;;;;;;;;;;5007910;28;20582;-77
2022/12/18 13:46:59;;;;;;;17.60;7.72;;;;;;;;;;5004070;28;20027;-77
2022/12/18 13:49:35;;;;;;;19.33;6.13;;;;;;;;;;4999127;28;20041;-78
2022/12/18 13:52:01;;;;;;;28.42;7.72;;;;;;;;;;5004872;28;20020;-78
2022/12/18 13:54:38;;;;;;;11.55;4.55;;;;;;;;;;5013056;28;20389;-77
2022/12/18 13:57:06;;;;;;;21.17;7.40;;;;;;;;;;5015871;28;20511;-77
2022/12/18 13:59:35;;;;;;;13.93;4.63;;;;;;;;;;5017009;28;20041;-78
2022/12/18 14:02:13;;;;;;;14.45;5.43;;;;;;;;;;5009984;28;20057;-77
2022/12/18 14:04:38;;;;;;;12.55;4.45;;;;;;;;;;5011805;28;20414;-76
2022/12/18 14:07:12;;;;;;;9.05;3.70;;;;;;;;;;5015344;28;20044;-77
2022/12/18 14:09:42;;;;;;;5.70;4.25;;;;;;;;;;5032794;28;20021;-77
2022/12/18 14:15:01;;;;;;;13.23;5.13;;;;;;;;;;5009613;28;20045;-76
2022/12/18 14:17:27;;;;;;;5.78;3.63;;;;;;;;;;5011202;28;20132;-76
2022/12/18 14:19:52;;;;;;;12.95;4.82;;;;;;;;;;5011700;28;20471;-78
2022/12/18 14:22:35;;;;;;;12.73;4.93;;;;;;;;;;5012644;28;20049;-77
2022/12/18 14:25:12;;;;;;;8.93;4.30;;;;;;;;;;5041192;28;20009;-78
2022/12/18 14:27:42;;;;;;;10.07;5.65;;;;;;;;;;5021531;28;20030;-75
2022/12/18 14:30:23;;;;;;;18.35;6.63;;;;;;;;;;5007510;28;20029;-75
2022/12/18 14:33:05;;;;;;;12.43;5.18;;;;;;;;;;5008740;28;20124;-76
2022/12/18 14:35:32;;;;;;;25.98;7.82;;;;;;;;;;5013116;28;20038;-75
2022/12/18 14:38:15;;;;;;;13.05;6.75;;;;;;;;;;5022363;28;20066;-75
2022/12/18 14:40:42;;;;;;;22.02;7.85;;;;;;;;;;5018703;28;20129;-75
2022/12/18 14:43:10;;;;;;;25.90;9.90;;;;;;;;;;5011676;28;20033;-77
2022/12/18 14:45:37;;;;;;;8.98;4.20;;;;;;;;;;5005548;28;20065;-75
2022/12/18 14:48:18;;;;;;;15.75;7.22;;;;;;;;;;5031922;28;20030;-77
2022/12/18 14:50:45;;;;;;;12.82;5.93;;;;;;;;;;5012806;28;20091;-76
2022/12/18 14:53:23;;;;;;;7.25;4.22;;;;;;;;;;5012303;28;20476;-77
2022/12/18 14:55:49;;;;;;;6.30;3.15;;;;;;;;;;5026978;28;20030;-76
2022/12/18 14:58:17;;;;;;;12.32;5.60;;;;;;;;;;5020355;28;20044;-77
2022/12/18 15:00:43;;;;;;;9.15;3.28;;;;;;;;;;5025745;28;20686;-76
2022/12/18 15:03:09;;;;;;;6.03;4.10;;;;;;;;;;5013164;28;20042;-75
2022/12/18 15:05:35;;;;;;;15.45;6.28;;;;;;;;;;5013513;28;20041;-77
2022/12/18 15:08:02;;;;;;;12.05;4.90;;;;;;;;;;5029114;28;20037;-76